Time;durP1;ratioP1;P1;durP2;ratioP2;P2;SDS_P1;SDS_P2;PMS_P1;PMS_P2;Temp;Humidity;BMP_temperature;BMP_pressure;BME280_temperature;BME280_humidity;BME280_pressure;Samples;Min_cycle;Max_cycle;Signal;HPM_P1;HPM_P2
2023/12/09 00:02:13;;;;;;;1.87;0.83;;;;;;;-143.84;92.00;45308.03;5089158;28;20483;-61
2023/12/09 00:04:41;;;;;;;1.20;1.10;;;;;;;-143.84;91.60;45285.19;5089113;28;20471;-61
2023/12/09 00:07:08;;;;;;;0.80;0.50;;;;;;;-143.84;91.88;45289.00;5089102;28;20443;-61
2023/12/09 00:09:35;;;;;;;0.80;0.40;;;;;;;-143.84;91.82;45300.44;5089004;28;20447;-61
2023/12/09 00:12:02;;;;;;;0.80;0.47;;;;;;;-143.84;92.08;45309.94;5088949;28;20443;-61
2023/12/09 00:14:29;;;;;;;0.80;0.40;;;;;;;-143.84;92.02;45319.47;5089263;28;20443;-61
2023/12/09 00:16:56;;;;;;;0.80;0.50;;;;;;;-143.84;92.26;45319.47;5088790;28;20585;-61
2023/12/09 00:19:25;;;;;;;1.10;0.90;;;;;;;-143.84;92.29;45294.72;5088866;28;20447;-61
2023/12/09 00:21:52;;;;;;;1.07;0.67;;;;;;;-143.84;91.89;45283.28;5089054;28;20901;-61
2023/12/09 00:24:19;;;;;;;1.40;0.97;;;;;;;-143.84;92.13;45321.38;5088740;28;20432;-61
2023/12/09 00:26:46;;;;;;;2.40;1.60;;;;;;;-143.84;92.37;45321.38;5088779;28;20509;-61
2023/12/09 00:29:13;;;;;;;0.80;0.60;;;;;;;-143.84;92.37;45289.00;5088226;28;20976;-61
2023/12/09 00:31:41;;;;;;;0.80;0.50;;;;;;;-143.84;92.42;45308.03;5088790;28;20444;-63
2023/12/09 00:34:09;;;;;;;0.80;0.40;;;;;;;-143.84;92.13;45277.56;5088405;28;20531;-63
2023/12/09 00:36:37;;;;;;;4.40;1.60;;;;;;;-143.84;92.14;45283.28;5088923;28;20806;-63
2023/12/09 00:39:05;;;;;;;0.80;0.50;;;;;;;-143.84;91.88;45289.00;5088669;28;20513;-63
2023/12/09 00:41:32;;;;;;;0.80;0.60;;;;;;;-143.84;92.26;45308.03;5088545;28;20479;-64
2023/12/09 00:43:59;;;;;;;0.80;0.43;;;;;;;-143.84;92.14;45308.03;5088273;28;20452;-63
2023/12/09 00:46:26;;;;;;;0.80;0.40;;;;;;;-143.84;92.63;45285.19;5087927;28;20858;-63
2023/12/09 00:48:53;;;;;;;1.37;1.27;;;;;;;-143.84;92.43;45266.16;5088128;28;20451;-64
2023/12/09 00:51:21;;;;;;;0.80;0.40;;;;;;;-143.84;92.40;45290.91;5088345;28;20641;-63
2023/12/09 00:53:49;;;;;;;0.80;0.40;;;;;;;-143.84;92.43;45315.66;5088238;28;20440;-63
2023/12/09 00:56:16;;;;;;;0.80;0.50;;;;;;;-143.84;92.05;45309.94;5088364;28;20447;-64
2023/12/09 00:58:43;;;;;;;3.30;0.87;;;;;;;-143.84;92.30;45302.34;5088524;28;20439;-63
2023/12/09 01:01:11;;;;;;;0.80;0.67;;;;;;;-143.84;92.36;45287.09;5088438;28;20552;-63
2023/12/09 01:03:39;;;;;;;0.80;0.50;;;;;;;-143.84;92.57;45285.19;5088236;28;20493;-64
2023/12/09 01:06:06;;;;;;;0.80;0.40;;;;;;;-143.84;92.46;45277.56;5088350;28;20447;-63
2023/12/09 01:08:33;;;;;;;0.80;0.50;;;;;;;-143.84;92.34;45290.91;5088442;28;20489;-63
2023/12/09 01:11:02;;;;;;;0.80;0.50;;;;;;;-143.84;92.48;45237.59;5088354;28;20447;-63
2023/12/09 01:13:30;;;;;;;0.90;0.73;;;;;;;-143.84;92.46;45306.13;5088430;28;20439;-63
2023/12/09 01:15:57;;;;;;;1.17;0.60;;;;;;;-143.84;92.97;45306.13;5088037;28;20956;-63
2023/12/09 01:18:24;;;;;;;1.23;1.13;;;;;;;-143.84;92.61;45289.00;5087994;28;20444;-64
2023/12/09 01:20:51;;;;;;;1.57;1.23;;;;;;;-143.84;92.44;45294.72;5088384;28;20506;-63
2023/12/09 01:23:18;;;;;;;0.80;0.40;;;;;;;-143.84;92.71;45298.53;5088273;28;20916;-63
2023/12/09 01:25:45;;;;;;;1.00;0.90;;;;;;;-143.84;92.21;45298.53;5088237;28;20525;-63
2023/12/09 01:28:14;;;;;;;0.80;0.73;;;;;;;-143.84;91.92;45277.56;5088238;28;20572;-64
2023/12/09 01:30:41;;;;;;;1.00;0.87;;;;;;;-143.84;92.19;45281.38;5088578;28;21159;-63
2023/12/09 01:33:08;;;;;;;0.80;0.40;;;;;;;-143.84;92.38;45289.00;5088182;28;20440;-64
2023/12/09 01:35:35;;;;;;;0.80;0.50;;;;;;;-143.84;92.34;45290.91;5088363;28;20478;-63
2023/12/09 01:38:03;;;;;;;1.10;1.00;;;;;;;-143.84;91.92;45321.38;5088309;28;21374;-63
2023/12/09 01:40:30;;;;;;;0.80;0.40;;;;;;;-143.84;91.92;45294.72;5090962;28;20538;-63
2023/12/09 01:42:57;;;;;;;0.80;0.50;;;;;;;-143.84;91.75;45292.81;5092039;28;20483;-63
2023/12/09 01:45:26;;;;;;;0.80;0.40;;;;;;;-143.84;91.40;45285.19;5092043;28;20500;-63
2023/12/09 01:47:54;;;;;;;0.80;0.40;;;;;;;-143.84;91.86;45298.53;5091779;28;20489;-63
2023/12/09 01:50:21;;;;;;;0.80;0.40;;;;;;;-143.84;91.46;45258.53;5091847;28;20838;-63
2023/12/09 01:52:48;;;;;;;0.80;0.40;;;;;;;-143.84;91.40;45287.09;5091460;28;20443;-63
2023/12/09 01:55:17;;;;;;;0.90;0.70;;;;;;;-143.84;91.43;45292.81;5091688;28;20877;-63
2023/12/09 01:57:44;;;;;;;0.80;0.40;;;;;;;-143.84;91.51;45285.19;5091763;28;20478;-63
2023/12/09 02:00:13;;;;;;;0.80;0.40;;;;;;;-143.84;91.21;45289.00;5091732;28;20439;-63
2023/12/09 02:02:57;;;;;;;0.80;0.40;;;;;;;-143.84;90.88;45290.91;5091404;28;20512;-63
2023/12/09 02:05:34;;;;;;;0.80;0.40;;;;;;;-143.84;91.04;45262.34;5089991;28;20444;-63
2023/12/09 02:08:01;;;;;;;0.80;0.40;;;;;;;-143.84;91.43;45285.19;5091424;28;20446;-63
2023/12/09 02:10:28;;;;;;;0.80;0.63;;;;;;;-143.84;91.63;45277.56;5091386;28;20436;-63
2023/12/09 02:13:07;;;;;;;0.80;0.50;;;;;;;-143.84;91.90;45273.78;5091415;28;20446;-63
2023/12/09 02:15:40;;;;;;;0.80;0.50;;;;;;;-143.84;91.95;45340.41;5091227;28;20450;-63
2023/12/09 02:18:09;;;;;;;0.80;0.50;;;;;;;-143.84;91.80;45294.72;5091450;28;20444;-63
2023/12/09 02:20:36;;;;;;;0.80;0.50;;;;;;;-143.84;91.88;45296.63;5091237;28;20489;-63
2023/12/09 02:23:09;;;;;;;0.80;0.60;;;;;;;-143.84;91.48;45298.53;5091379;28;20502;-63
2023/12/09 02:25:37;;;;;;;0.80;0.50;;;;;;;-143.84;91.72;45289.00;5091136;28;20444;-63
2023/12/09 02:28:10;;;;;;;1.60;1.50;;;;;;;-143.84;91.85;45289.00;5091376;28;20440;-63
2023/12/09 02:30:45;;;;;;;11.90;1.53;;;;;;;-143.84;91.61;45311.84;5090937;28;20446;-63
2023/12/09 02:33:15;;;;;;;0.80;0.60;;;;;;;-143.84;91.52;45269.97;5091062;28;20469;-63
2023/12/09 02:35:45;;;;;;;0.80;0.40;;;;;;;-143.84;91.43;45294.72;5090747;28;20440;-63
2023/12/09 02:38:15;;;;;;;0.80;0.57;;;;;;;-143.84;91.80;45294.72;5090819;28;20447;-63
2023/12/09 02:40:43;;;;;;;0.80;0.50;;;;;;;-143.84;91.77;45311.84;5090886;28;20455;-63
2023/12/09 02:43:11;;;;;;;0.80;0.60;;;;;;;-143.84;91.66;45321.38;5090596;28;20479;-63
2023/12/09 02:45:38;;;;;;;0.80;0.47;;;;;;;-143.84;91.47;45300.44;5090515;28;20485;-63
2023/12/09 02:48:06;;;;;;;0.90;0.80;;;;;;;-143.84;91.71;45308.03;5090673;28;20463;-63
2023/12/09 02:50:33;;;;;;;1.10;0.83;;;;;;;-143.84;91.38;45323.28;5090388;28;20849;-63
2023/12/09 02:53:00;;;;;;;0.80;0.60;;;;;;;-143.84;91.77;45281.38;5090250;28;20444;-63
2023/12/09 02:55:29;;;;;;;0.80;0.40;;;;;;;-143.84;91.65;45283.28;5090506;28;20467;-63
2023/12/09 02:57:56;;;;;;;0.80;0.63;;;;;;;-143.84;91.35;45279.47;5090496;28;20498;-63
2023/12/09 03:00:23;;;;;;;0.80;0.70;;;;;;;-143.84;91.55;45304.25;5090252;28;20524;-63
2023/12/09 03:02:50;;;;;;;0.80;0.50;;;;;;;-143.84;91.50;45304.25;5090293;28;20486;-63
2023/12/09 03:05:17;;;;;;;1.13;1.03;;;;;;;-143.84;91.57;45294.72;5090424;28;20435;-63
2023/12/09 03:07:44;;;;;;;0.80;0.50;;;;;;;-143.84;91.92;45289.00;5090430;28;20994;-63
2023/12/09 03:10:11;;;;;;;0.80;0.50;;;;;;;-143.84;91.95;45294.72;5090140;28;20436;-63
2023/12/09 03:12:40;;;;;;;0.80;0.40;;;;;;;-143.84;92.23;45298.53;5090254;28;20444;-63
2023/12/09 03:15:08;;;;;;;0.80;0.40;;;;;;;-143.84;92.60;45289.00;5089984;28;20474;-63
2023/12/09 03:17:35;;;;;;;0.80;0.50;;;;;;;-143.84;92.83;45306.13;5089877;28;20488;-63
2023/12/09 03:20:03;;;;;;;1.77;1.57;;;;;;;-143.84;93.11;45294.72;5089972;28;20432;-63
2023/12/09 03:22:31;;;;;;;0.80;0.50;;;;;;;-143.84;93.23;45308.03;5089879;28;20575;-63
2023/12/09 03:24:58;;;;;;;0.80;0.60;;;;;;;-143.84;93.53;45319.47;5090195;28;20809;-63
2023/12/09 03:27:25;;;;;;;3.53;1.07;;;;;;;-143.84;93.26;45298.53;5089796;28;20501;-63
2023/12/09 03:29:53;;;;;;;1.10;0.70;;;;;;;-143.84;93.29;45277.56;5089862;28;20494;-63
2023/12/09 03:32:21;;;;;;;0.80;0.50;;;;;;;-143.84;93.20;45296.63;5089670;28;20436;-63
2023/12/09 03:34:48;;;;;;;0.80;0.40;;;;;;;-143.84;93.03;45285.19;5089811;28;20440;-63
2023/12/09 03:37:15;;;;;;;0.80;0.53;;;;;;;-143.84;92.71;45296.63;5089564;28;20454;-63
2023/12/09 03:39:42;;;;;;;0.80;0.40;;;;;;;-143.84;92.58;45309.94;5089606;28;20447;-63
2023/12/09 03:42:09;;;;;;;0.80;0.40;;;;;;;-143.84;92.74;45308.03;5089755;28;20544;-63
2023/12/09 03:44:36;;;;;;;0.80;0.50;;;;;;;-143.84;92.84;45323.28;5089367;28;20447;-63
2023/12/09 03:47:05;;;;;;;0.80;0.40;;;;;;;-143.84;92.75;45309.94;5089506;28;20444;-63
2023/12/09 03:49:33;;;;;;;0.80;0.50;;;;;;;-143.84;92.76;45308.03;5089563;28;20933;-63
2023/12/09 03:52:00;;;;;;;2.03;0.90;;;;;;;-143.84;92.82;45315.66;5089393;28;20926;-63
2023/12/09 03:54:27;;;;;;;1.20;1.10;;;;;;;-143.84;92.52;45311.84;5089285;28;20436;-63
2023/12/09 03:56:54;;;;;;;0.80;0.40;;;;;;;-143.84;92.38;45289.00;5089571;28;20865;-63
2023/12/09 03:59:21;;;;;;;0.80;0.40;;;;;;;-143.84;92.88;45285.19;5089396;28;21002;-63
2023/12/09 04:01:49;;;;;;;0.80;0.50;;;;;;;-143.84;93.10;45287.09;5089205;28;20525;-63
2023/12/09 04:04:18;;;;;;;0.80;0.50;;;;;;;-143.84;92.93;45273.78;5089215;28;20447;-63
2023/12/09 04:06:45;;;;;;;0.80;0.60;;;;;;;-143.84;93.21;45308.03;5088983;28;20447;-63
2023/12/09 04:09:13;;;;;;;0.80;0.50;;;;;;;-143.84;92.95;45292.81;5089321;28;20802;-63
2023/12/09 04:11:40;;;;;;;0.90;0.60;;;;;;;-143.84;93.06;45300.44;5088996;28;20452;-64
2023/12/09 04:14:07;;;;;;;0.80;0.50;;;;;;;-143.84;93.25;45277.56;5089197;28;20831;-63
2023/12/09 04:16:34;;;;;;;0.80;0.50;;;;;;;-143.84;93.23;45308.03;5088931;28;20492;-63
2023/12/09 04:19:02;;;;;;;1.27;1.17;;;;;;;-143.84;93.14;45306.13;5089171;28;20432;-63
2023/12/09 04:21:30;;;;;;;0.80;0.43;;;;;;;-143.84;92.89;45262.34;5089013;28;20440;-63
2023/12/09 04:23:57;;;;;;;0.80;0.40;;;;;;;-143.84;93.13;45294.72;5089147;28;21222;-64
2023/12/09 04:26:26;;;;;;;0.80;0.50;;;;;;;-143.84;93.45;45304.25;5088836;28;20447;-63
2023/12/09 04:28:53;;;;;;;0.80;0.50;;;;;;;-143.84;93.49;45292.81;5088849;28;20471;-63
2023/12/09 04:31:20;;;;;;;0.80;0.50;;;;;;;-143.84;93.71;45290.91;5088979;28;20436;-63
2023/12/09 04:33:47;;;;;;;0.93;0.83;;;;;;;-143.84;93.68;45309.94;5089049;28;20509;-63
2023/12/09 04:36:14;;;;;;;8.53;2.90;;;;;;;-143.84;93.55;45302.34;5088714;28;20444;-63
2023/12/09 04:38:43;;;;;;;0.80;0.50;;;;;;;-143.84;93.62;45290.91;5088788;28;20797;-63
2023/12/09 04:41:10;;;;;;;0.80;0.40;;;;;;;-143.84;93.36;45298.53;5088554;28;20482;-63
2023/12/09 04:43:38;;;;;;;0.80;0.50;;;;;;;-143.84;93.31;45289.00;5088762;28;20548;-63
2023/12/09 04:46:05;;;;;;;0.90;0.73;;;;;;;-143.84;93.23;45325.19;5088913;28;20444;-63
2023/12/09 04:48:33;;;;;;;0.80;0.50;;;;;;;-143.84;93.32;45317.56;5088703;28;20442;-63
2023/12/09 04:51:00;;;;;;;0.80;0.60;;;;;;;-143.84;93.45;45304.25;5088965;28;20467;-63
2023/12/09 04:53:27;;;;;;;0.80;0.50;;;;;;;-143.84;93.05;45304.25;5088609;28;20535;-63
2023/12/09 04:55:55;;;;;;;0.80;0.40;;;;;;;-143.84;92.74;45309.94;5088439;28;20929;-63
2023/12/09 04:58:22;;;;;;;0.80;0.50;;;;;;;-143.84;92.73;45309.94;5088684;28;20436;-63
2023/12/09 05:00:50;;;;;;;0.80;0.40;;;;;;;-143.84;92.78;45308.03;5088871;28;20795;-63
2023/12/09 05:03:17;;;;;;;0.80;0.40;;;;;;;-143.84;92.94;45306.13;5088393;28;20532;-63
2023/12/09 05:05:44;;;;;;;2.07;1.40;;;;;;;-143.84;93.07;45285.19;5088882;28;20453;-63
2023/12/09 05:08:11;;;;;;;0.80;0.40;;;;;;;-143.84;93.07;45319.47;5088632;28;20444;-63
2023/12/09 05:10:38;;;;;;;0.80;0.40;;;;;;;-143.84;93.53;45327.09;5088353;28;20461;-63
2023/12/09 05:13:07;;;;;;;0.80;0.50;;;;;;;-143.84;93.76;45304.25;5088538;28;20950;-63
2023/12/09 05:15:34;;;;;;;2.80;2.60;;;;;;;-143.84;93.74;45304.25;5091162;28;20460;-63
2023/12/09 05:18:02;;;;;;;0.80;0.50;;;;;;;-143.84;93.85;45262.34;5092122;28;21305;-63
2023/12/09 05:20:29;;;;;;;1.40;1.27;;;;;;;-143.84;93.86;45315.66;5092109;28;20440;-63
2023/12/09 05:22:57;;;;;;;0.80;0.50;;;;;;;-143.84;94.11;45273.78;5091710;28;20511;-63
2023/12/09 05:25:24;;;;;;;1.40;1.07;;;;;;;-143.84;94.40;45296.63;5091554;28;20523;-63
2023/12/09 05:27:51;;;;;;;0.80;0.67;;;;;;;-143.84;94.28;45315.66;5092006;28;20804;-63
2023/12/09 05:30:20;;;;;;;0.83;0.60;;;;;;;-143.84;94.21;45317.56;5091827;28;20442;-63
2023/12/09 05:32:47;;;;;;;2.50;1.73;;;;;;;-143.84;93.84;45296.63;5092041;28;20447;-63
2023/12/09 05:35:14;;;;;;;0.80;0.50;;;;;;;-143.84;93.72;45300.44;5092093;28;20849;-63
2023/12/09 05:37:41;;;;;;;1.30;1.13;;;;;;;-143.84;93.87;45277.56;5079787;28;21164;-62
2023/12/09 05:40:10;;;;;;;0.80;0.40;;;;;;;-143.84;93.71;45300.44;5071699;28;20433;-61
2023/12/09 05:42:37;;;;;;;1.73;1.63;;;;;;;-143.84;94.11;45313.75;5071590;28;20484;-61
2023/12/09 05:45:05;;;;;;;0.80;0.50;;;;;;;-143.84;94.28;45287.09;5071843;28;20436;-61
2023/12/09 05:47:34;;;;;;;0.97;0.73;;;;;;;-143.84;94.62;45306.13;5071599;28;20528;-62
2023/12/09 05:50:01;;;;;;;0.80;0.50;;;;;;;-143.84;94.45;45300.44;5071084;28;20440;-62
2023/12/09 05:52:28;;;;;;;1.57;1.47;;;;;;;-143.84;94.53;45306.13;5071455;28;20437;-62
2023/12/09 05:54:55;;;;;;;0.80;0.40;;;;;;;-143.84;94.61;45298.53;5071639;28;20939;-62
2023/12/09 05:57:22;;;;;;;0.80;0.40;;;;;;;-143.84;94.40;45290.91;5071542;28;20437;-62
2023/12/09 05:59:50;;;;;;;0.80;0.60;;;;;;;-143.84;94.68;45298.53;5071556;28;20502;-61
2023/12/09 06:02:17;;;;;;;0.80;0.40;;;;;;;-143.84;94.52;45290.91;5071468;28;20436;-63
2023/12/09 06:04:45;;;;;;;0.80;0.50;;;;;;;-143.84;94.49;45306.13;5071106;28;20445;-62
2023/12/09 06:07:12;;;;;;;0.90;0.77;;;;;;;-143.84;94.39;45313.75;5071215;28;20448;-62
2023/12/09 06:09:40;;;;;;;0.80;0.60;;;;;;;-143.84;94.32;45319.47;5071810;28;20437;-61
2023/12/09 06:12:08;;;;;;;0.93;0.93;;;;;;;-143.84;94.04;45319.47;5071252;28;20440;-62
2023/12/09 06:14:35;;;;;;;0.80;0.50;;;;;;;-143.84;93.64;45311.84;5071153;28;20449;-61
2023/12/09 06:17:02;;;;;;;0.90;0.90;;;;;;;-143.84;93.58;45296.63;5071277;28;20484;-62
2023/12/09 06:19:29;;;;;;;0.73;0.50;;;;;;;-143.84;93.33;45296.63;5086924;28;20854;-61
2023/12/09 06:21:57;;;;;;;0.80;0.50;;;;;;;-143.84;92.84;45289.00;5108487;28;20454;-62
2023/12/09 06:24:24;;;;;;;0.80;0.50;;;;;;;-143.84;92.62;45290.91;5111954;28;20478;-61
2023/12/09 06:26:52;;;;;;;0.80;0.40;;;;;;;-143.84;92.48;45306.13;5110547;28;20442;-62
2023/12/09 06:29:19;;;;;;;0.80;0.60;;;;;;;-143.84;92.40;45311.84;5111747;28;20442;-62
2023/12/09 06:31:46;;;;;;;3.63;1.73;;;;;;;-143.84;91.77;45306.13;5111926;28;20427;-62
2023/12/09 06:34:13;;;;;;;0.80;0.60;;;;;;;-143.84;91.77;45306.13;5111331;27;20447;-61
2023/12/09 06:36:40;;;;;;;0.80;0.57;;;;;;;-143.84;91.83;45285.19;5110919;28;20451;-62
2023/12/09 06:39:09;;;;;;;1.30;0.70;;;;;;;-143.84;91.68;45329.00;5111712;28;20805;-62
2023/12/09 06:41:40;;;;;;;0.80;0.40;;;;;;;-143.84;91.34;45317.56;5111490;28;20439;-61
2023/12/09 06:44:07;;;;;;;0.80;0.40;;;;;;;-143.84;91.09;45319.47;5111256;28;20492;-62
2023/12/09 06:46:38;;;;;;;0.87;0.67;;;;;;;-143.84;91.34;45294.72;5111169;28;20488;-61
2023/12/09 06:49:06;;;;;;;0.80;0.50;;;;;;;-143.84;90.95;45296.63;5111630;28;20502;-61
2023/12/09 06:51:33;;;;;;;0.80;0.50;;;;;;;-143.84;90.26;45294.72;5110996;28;20455;-61
2023/12/09 06:54:00;;;;;;;1.63;1.07;;;;;;;-143.84;89.99;45304.25;5111183;27;20493;-62
2023/12/09 06:56:29;;;;;;;0.80;0.40;;;;;;;-143.84;90.46;45275.66;5111027;28;20933;-62
2023/12/09 06:58:56;;;;;;;0.90;0.73;;;;;;;-143.84;89.97;45323.28;5111052;28;20440;-61
2023/12/09 07:01:24;;;;;;;0.80;0.40;;;;;;;-143.84;90.05;45289.00;5111341;28;20439;-61
2023/12/09 07:03:51;;;;;;;0.80;0.50;;;;;;;-143.84;90.29;45292.81;5111153;27;20483;-62
2023/12/09 07:06:22;;;;;;;0.80;0.50;;;;;;;-143.84;90.21;45283.28;5110220;27;20488;-61
2023/12/09 07:08:49;;;;;;;0.80;0.70;;;;;;;-143.84;90.39;45298.53;5111060;28;20439;-61
2023/12/09 07:11:17;;;;;;;1.10;0.70;;;;;;;-143.84;90.48;45289.00;5110930;28;20777;-61
2023/12/09 07:13:46;;;;;;;0.80;0.50;;;;;;;-143.84;90.75;45279.47;5110940;28;20527;-62
2023/12/09 07:16:13;;;;;;;0.80;0.50;;;;;;;-143.84;90.80;45287.09;5110595;28;20578;-61
2023/12/09 07:18:43;;;;;;;0.80;0.50;;;;;;;-143.84;90.70;45315.66;5110810;28;20468;-61
2023/12/09 07:21:11;;;;;;;0.80;0.60;;;;;;;-143.84;90.90;45273.78;5110000;28;20507;-61
2023/12/09 07:23:38;;;;;;;0.80;0.60;;;;;;;-143.84;91.49;45287.09;5110751;28;20980;-61
2023/12/09 07:26:05;;;;;;;1.20;0.80;;;;;;;-143.84;91.21;45319.47;5110656;28;20434;-61
2023/12/09 07:28:33;;;;;;;0.80;0.50;;;;;;;-143.84;91.58;45285.19;5110639;28;20860;-61
2023/12/09 07:31:02;;;;;;;0.80;0.57;;;;;;;-143.84;91.65;45300.44;5110303;28;20440;-61
2023/12/09 07:33:29;;;;;;;0.80;0.60;;;;;;;-143.84;91.67;45306.13;5110935;28;20458;-62
2023/12/09 07:35:56;;;;;;;0.80;0.40;;;;;;;-143.84;91.72;45285.19;5110079;28;20909;-61
2023/12/09 07:38:23;;;;;;;1.20;1.10;;;;;;;-143.84;91.54;45262.34;5110184;28;20439;-62
2023/12/09 07:40:51;;;;;;;0.80;0.40;;;;;;;-143.84;91.12;45317.56;5110409;28;20458;-61
2023/12/09 07:43:18;;;;;;;0.80;0.67;;;;;;;-143.84;90.91;45273.78;5110106;28;20463;-61
2023/12/09 07:45:45;;;;;;;2.07;1.23;;;;;;;-143.84;91.35;45260.44;5110303;28;20632;-62
2023/12/09 07:48:14;;;;;;;1.83;1.43;;;;;;;-143.84;90.96;45287.09;5109978;28;20952;-62
2023/12/09 07:50:42;;;;;;;0.97;0.80;;;;;;;-143.84;90.69;45325.19;5110428;28;20450;-60
2023/12/09 07:53:09;;;;;;;0.80;0.40;;;;;;;-143.84;91.43;45289.00;5111824;28;20786;-62
2023/12/09 07:55:36;;;;;;;1.43;1.33;;;;;;;-143.84;91.08;45292.81;5111922;28;20446;-61
2023/12/09 07:58:03;;;;;;;0.80;0.40;;;;;;;-143.84;90.95;45268.06;5111756;28;20434;-61
2023/12/09 08:00:31;;;;;;;1.23;0.90;;;;;;;-143.84;90.95;45268.06;5111301;28;20468;-61
2023/12/09 08:03:04;;;;;;;2.60;0.80;;;;;;;-143.84;90.78;45281.38;5111736;28;20525;-61
2023/12/09 08:05:33;;;;;;;0.80;0.50;;;;;;;-143.84;90.36;45300.44;5111005;28;20477;-61
2023/12/09 08:08:00;;;;;;;0.80;0.40;;;;;;;-143.84;90.58;45281.38;5111202;28;20423;-62
2023/12/09 08:10:27;;;;;;;1.33;0.87;;;;;;;-143.84;90.21;45292.81;5111356;28;20435;-63
2023/12/09 08:12:54;;;;;;;1.00;0.90;;;;;;;-143.84;89.90;45277.56;5111034;28;20551;-61
2023/12/09 08:15:21;;;;;;;0.80;0.60;;;;;;;-143.84;89.44;45287.09;5111179;28;20816;-61
2023/12/09 08:17:48;;;;;;;0.80;0.60;;;;;;;-143.84;89.35;45292.81;5110014;27;20975;-62
2023/12/09 08:20:16;;;;;;;0.80;0.60;;;;;;;-143.84;89.75;45292.81;5110155;28;20454;-62
2023/12/09 08:22:44;;;;;;;0.80;0.50;;;;;;;-143.84;89.37;45308.03;5110204;28;20431;-62
2023/12/09 08:25:12;;;;;;;0.80;0.53;;;;;;;-143.84;89.48;45298.53;5110369;28;21233;-61
2023/12/09 08:27:40;;;;;;;0.80;0.60;;;;;;;-143.84;89.14;45269.97;5111104;28;20439;-62
2023/12/09 08:30:10;;;;;;;1.53;1.00;;;;;;;-143.84;89.31;45277.56;5110854;27;20805;-61
2023/12/09 08:32:39;;;;;;;0.80;0.50;;;;;;;-143.84;88.96;45287.09;5110641;28;20523;-61
2023/12/09 08:35:07;;;;;;;0.80;0.50;;;;;;;-143.84;89.51;45292.81;5109938;28;20443;-61
2023/12/09 08:37:34;;;;;;;0.80;0.50;;;;;;;-143.84;89.17;45289.00;5111203;28;20504;-61
2023/12/09 08:40:11;;;;;;;0.80;0.50;;;;;;;-143.84;88.84;45275.66;5110734;28;20527;-63
2023/12/09 08:42:39;;;;;;;0.80;0.67;;;;;;;-143.84;88.69;45308.03;5110540;28;20454;-61
2023/12/09 08:45:09;;;;;;;0.80;0.50;;;;;;;-143.84;88.69;45319.47;5110296;28;20551;-61
2023/12/09 08:47:36;;;;;;;0.80;0.40;;;;;;;-143.84;88.96;45289.00;5110248;28;20431;-62
2023/12/09 08:50:04;;;;;;;0.80;0.60;;;;;;;-143.84;88.44;45281.38;5109121;28;20439;-61
2023/12/09 08:52:31;;;;;;;0.80;0.50;;;;;;;-143.84;88.76;45294.72;5109976;28;20514;-62
2023/12/09 08:54:58;;;;;;;1.83;1.17;;;;;;;-143.84;88.63;45285.19;5110299;28;20933;-62
2023/12/09 08:57:27;;;;;;;0.80;0.60;;;;;;;-143.84;88.99;45281.38;5109866;28;20452;-60
2023/12/09 08:59:55;;;;;;;0.83;0.70;;;;;;;-143.84;88.81;45285.19;5109993;28;20446;-61
2023/12/09 09:02:23;;;;;;;1.10;1.00;;;;;;;-143.84;89.01;45290.91;5109898;28;20427;-62
2023/12/09 09:04:50;;;;;;;0.80;0.50;;;;;;;-143.84;88.71;45306.13;5109462;28;20558;-62
2023/12/09 09:07:17;;;;;;;1.37;1.27;;;;;;;-143.84;88.13;45292.81;5110211;28;20427;-61
2023/12/09 09:09:44;;;;;;;0.80;0.60;;;;;;;-143.84;88.33;45306.13;5110301;28;20431;-62
2023/12/09 09:12:11;;;;;;;0.80;0.50;;;;;;;-143.84;88.34;45285.19;5109830;28;20446;-60
2023/12/09 09:14:40;;;;;;;0.80;0.50;;;;;;;-143.84;88.02;45313.75;5109726;28;20435;-61
2023/12/09 09:17:07;;;;;;;0.80;0.40;;;;;;;-143.84;88.63;45279.47;5109790;28;20483;-61
2023/12/09 09:19:35;;;;;;;0.93;0.83;;;;;;;-143.84;88.28;45287.09;5109446;28;20435;-61
2023/12/09 09:22:03;;;;;;;1.63;1.33;;;;;;;-143.84;88.25;45298.53;5110033;28;20427;-61
2023/12/09 09:24:30;;;;;;;0.90;0.60;;;;;;;-143.84;88.24;45300.44;5109836;28;20507;-61
2023/12/09 09:26:57;;;;;;;7.77;1.73;;;;;;;-143.84;87.98;45290.91;5109901;28;20427;-61
2023/12/09 09:29:25;;;;;;;2.50;1.43;;;;;;;-143.84;87.72;45269.97;5110213;28;20469;-62
2023/12/09 09:31:54;;;;;;;0.80;0.50;;;;;;;-143.84;88.25;45306.13;5109698;28;20537;-61
2023/12/09 09:34:21;;;;;;;0.80;0.60;;;;;;;-143.84;87.85;45300.44;5109743;28;20891;-62
2023/12/09 09:36:49;;;;;;;0.80;0.70;;;;;;;-143.84;88.00;45296.63;5109644;28;20496;-61
2023/12/09 09:39:17;;;;;;;0.80;0.50;;;;;;;-143.84;87.93;45311.84;5109637;28;20436;-61
2023/12/09 09:41:56;;;;;;;0.80;0.40;;;;;;;-143.84;87.64;45283.28;5109746;28;20435;-61
2023/12/09 09:44:27;;;;;;;0.90;0.73;;;;;;;-143.84;87.70;45292.81;5110006;28;20550;-62
2023/12/09 09:46:58;;;;;;;0.97;0.87;;;;;;;-143.84;87.82;45321.38;5109632;28;20870;-61
2023/12/09 09:49:26;;;;;;;0.80;0.77;;;;;;;-143.84;88.04;45283.28;5109318;28;20435;-61
2023/12/09 09:51:57;;;;;;;0.80;0.60;;;;;;;-143.84;89.13;45292.81;5109842;28;21362;-61
2023/12/09 09:54:30;;;;;;;0.80;0.50;;;;;;;-143.84;89.21;45315.66;5109688;28;20908;-61
2023/12/09 09:56:58;;;;;;;1.00;0.90;;;;;;;-143.84;89.23;45296.63;5107873;28;20431;-61
2023/12/09 09:59:26;;;;;;;8.83;2.40;;;;;;;-143.84;89.47;45268.06;5107579;28;20885;-61
2023/12/09 10:01:55;;;;;;;0.80;0.40;;;;;;;-143.84;89.55;45287.09;5111694;28;21082;-61
2023/12/09 10:04:22;;;;;;;0.93;0.83;;;;;;;-143.84;89.35;45266.16;5111629;28;20519;-61
2023/12/09 10:06:50;;;;;;;1.17;1.03;;;;;;;-143.84;89.78;45342.31;5112018;28;20493;-61
2023/12/09 10:09:17;;;;;;;0.90;0.70;;;;;;;-143.84;89.64;45298.53;5112431;28;20479;-61
2023/12/09 10:11:44;;;;;;;0.90;0.77;;;;;;;-143.84;89.98;45283.28;5112907;28;20431;-61
2023/12/09 10:14:11;;;;;;;0.80;0.60;;;;;;;-143.84;89.55;45292.81;5113067;28;20816;-61
2023/12/09 10:16:39;;;;;;;0.80;0.50;;;;;;;-143.84;89.87;45289.00;5112622;28;20825;-61
2023/12/09 10:19:14;;;;;;;1.00;0.80;;;;;;;-143.84;90.13;45281.38;5112844;28;20424;-61
2023/12/09 10:21:41;;;;;;;0.80;0.70;;;;;;;-143.84;89.96;45262.34;5112937;28;20438;-62
2023/12/09 10:24:08;;;;;;;0.83;0.70;;;;;;;-143.84;89.58;45273.78;5112312;28;20467;-61
2023/12/09 10:26:35;;;;;;;0.80;0.40;;;;;;;-143.84;89.74;45269.97;5112085;27;20444;-61
2023/12/09 10:29:03;;;;;;;1.17;1.07;;;;;;;-143.84;89.81;45313.75;5112321;28;20431;-61
2023/12/09 10:31:34;;;;;;;0.80;0.40;;;;;;;-143.84;89.25;45294.72;5112873;27;20586;-61
2023/12/09 10:34:02;;;;;;;0.80;0.50;;;;;;;-143.84;89.27;45296.63;5112370;28;20511;-61
2023/12/09 10:36:32;;;;;;;1.03;0.90;;;;;;;-143.84;89.38;45308.03;5112598;28;20932;-61
2023/12/09 10:38:59;;;;;;;0.80;0.40;;;;;;;-143.84;89.39;45292.81;5112411;28;20811;-61
2023/12/09 10:41:27;;;;;;;0.80;0.63;;;;;;;-143.84;89.70;45275.66;5108554;28;20877;-60
2023/12/09 10:43:56;;;;;;;0.80;0.50;;;;;;;-143.84;89.67;45308.03;5091515;28;20464;-61
2023/12/09 10:46:23;;;;;;;0.80;0.50;;;;;;;-143.84;88.99;45271.88;5091743;28;20571;-62
2023/12/09 10:48:51;;;;;;;0.83;0.70;;;;;;;-143.84;90.03;45281.38;5091224;28;20445;-61
2023/12/09 10:51:18;;;;;;;1.00;0.90;;;;;;;-143.84;89.87;45311.84;5091816;28;20432;-61
2023/12/09 10:53:47;;;;;;;1.00;0.90;;;;;;;-143.84;90.01;45309.94;5091991;28;20519;-61
2023/12/09 10:56:14;;;;;;;0.80;0.63;;;;;;;-143.84;90.21;45313.75;5091607;28;20443;-61
2023/12/09 10:58:44;;;;;;;0.80;0.60;;;;;;;-143.84;89.84;45315.66;5091854;28;20432;-61
2023/12/09 11:01:12;;;;;;;3.03;1.00;;;;;;;-143.84;89.97;45281.38;5091685;28;21335;-61
2023/12/09 11:03:40;;;;;;;0.80;0.43;;;;;;;-143.84;89.75;45308.03;5091533;28;20449;-61
2023/12/09 11:06:09;;;;;;;0.80;0.50;;;;;;;-143.84;89.46;45275.66;5091790;28;20446;-61
2023/12/09 11:08:39;;;;;;;2.40;1.23;;;;;;;-143.84;89.52;45306.13;5091355;28;20436;-61
2023/12/09 11:11:09;;;;;;;0.80;0.40;;;;;;;-143.84;89.72;45298.53;5091534;28;20957;-61
2023/12/09 11:13:37;;;;;;;2.60;0.93;;;;;;;-143.84;90.12;45300.44;5091188;28;20494;-62
2023/12/09 11:16:09;;;;;;;0.80;0.70;;;;;;;-143.84;89.34;45289.00;5090945;28;20922;-62
2023/12/09 11:18:36;;;;;;;0.80;0.40;;;;;;;-143.84;89.71;45302.34;5091246;28;20433;-61
2023/12/09 11:21:04;;;;;;;1.67;1.13;;;;;;;-143.84;89.74;45287.09;5091074;28;20470;-61